Sluck, Belarus
Current Conditions -  °F | °C
As of 8:00 AM on Saturday 25 Oct 2014 (Local Time) from UMMM Reporting Station
Clear Clear  
Wind Chill: 13°   Ceiling: Unl
Heat Index: 19°   Visibility: 6mi
Dew Point: 16°   Wind: 4mph
Humidity: 86%   Direction: 120°ESE
Pressure: 30.56"   Gusts: NA
Location:  53.03°N, 27.55°E
Report Text: UMMM 250600Z 12002MPS CAVOK M07/M09 Q1035 R12/CLRD60 NOSIG RMKQFE755
Loading
Personal Weather Stations






























Interactive Weather Map
Tropical Storm Tracking
New forecast layout! Learn more

10-Day Weather Forecast

Advertisements
Track Severe Weather on mobile